createdAt,value
2019-02-15T00:01:55.760Z,5.90
2019-02-15T00:04:25.986Z,5.50
2019-02-15T00:06:56.397Z,5.10
2019-02-15T00:09:26.719Z,5.20
2019-02-15T00:12:19.505Z,5.90
2019-02-15T00:14:49.686Z,5.70
2019-02-15T00:17:37.085Z,6.20
2019-02-15T00:20:11.325Z,6.30
2019-02-15T00:22:41.759Z,5.90
2019-02-15T00:25:12.240Z,5.90
2019-02-15T00:27:42.612Z,6.00
2019-02-15T00:30:12.628Z,5.90
2019-02-15T00:35:38.634Z,5.30
2019-02-15T00:38:08.932Z,5.50
2019-02-15T00:40:40.322Z,5.30
2019-02-15T00:43:10.235Z,5.30
2019-02-15T00:45:50.055Z,5.60
2019-02-15T00:48:22.233Z,5.50
2019-02-15T00:50:58.797Z,5.30
2019-02-15T00:53:45.282Z,5.20
2019-02-15T00:56:34.640Z,5.40
2019-02-15T00:59:30.486Z,5.50
2019-02-15T01:02:26.920Z,5.40
2019-02-15T01:05:08.495Z,5.40
2019-02-15T01:07:55.504Z,5.30
2019-02-15T01:10:40.577Z,5.70
2019-02-15T01:13:14.068Z,5.80
2019-02-15T01:15:44.225Z,5.80
2019-02-15T01:18:14.275Z,5.70
2019-02-15T01:20:44.946Z,5.90
2019-02-15T01:23:14.959Z,6.10
2019-02-15T01:25:52.687Z,6.20
2019-02-15T01:28:40.406Z,6.20
2019-02-15T01:31:39.481Z,6.00
2019-02-15T01:34:29.163Z,6.00
2019-02-15T01:37:18.432Z,6.20
2019-02-15T01:40:04.312Z,6.40
2019-02-15T01:43:06.002Z,6.40
2019-02-15T01:45:46.422Z,6.50
2019-02-15T01:48:17.015Z,6.60
2019-02-15T01:50:47.363Z,6.60
2019-02-15T01:53:17.570Z,6.60
2019-02-15T01:55:48.084Z,6.40
2019-02-15T01:58:19.109Z,6.40
2019-02-15T02:00:48.758Z,6.10
2019-02-15T02:05:59.128Z,5.50
2019-02-15T02:08:30.647Z,5.60
2019-02-15T02:11:01.042Z,5.50
2019-02-15T02:13:31.352Z,5.50
2019-02-15T02:16:01.605Z,5.30
2019-02-15T02:18:31.723Z,5.30
2019-02-15T02:21:02.560Z,5.40
2019-02-15T02:23:32.811Z,5.00
2019-02-15T02:26:03.696Z,4.90
2019-02-15T02:28:33.650Z,5.00
2019-02-15T02:31:04.239Z,5.40
2019-02-15T02:33:34.490Z,5.40
2019-02-15T02:36:05.036Z,5.30
2019-02-15T02:38:35.094Z,5.20
2019-02-15T02:41:04.976Z,6.10
2019-02-15T02:43:34.743Z,5.00
2019-02-15T02:46:05.377Z,5.30
2019-02-15T02:48:36.726Z,5.10
2019-02-15T02:51:07.027Z,5.30
2019-02-15T02:53:37.079Z,5.10
2019-02-15T02:56:07.011Z,5.10
2019-02-15T02:58:37.278Z,4.90
2019-02-15T03:01:07.815Z,4.90
2019-02-15T03:03:37.934Z,4.70
2019-02-15T03:06:08.002Z,4.70
2019-02-15T03:08:38.308Z,4.80
2019-02-15T03:11:09.509Z,5.20
2019-02-15T03:13:39.485Z,5.30
2019-02-15T03:16:10.456Z,5.00
2019-02-15T03:21:10.182Z,4.60
2019-02-15T03:23:40.221Z,4.70
2019-02-15T03:26:11.423Z,4.70
2019-02-15T03:28:41.425Z,5.00
2019-02-15T03:31:12.062Z,4.90
2019-02-15T03:33:41.842Z,5.10
2019-02-15T03:36:19.007Z,5.20
2019-02-15T03:38:57.776Z,5.00
2019-02-15T03:41:35.116Z,5.10
2019-02-15T03:44:04.938Z,5.40
2019-02-15T03:46:34.857Z,5.30
2019-02-15T03:49:04.758Z,5.30
2019-02-15T03:51:34.273Z,5.20
2019-02-15T03:54:04.316Z,5.10
2019-02-15T03:56:35.043Z,5.30
2019-02-15T03:59:04.906Z,5.10
2019-02-15T04:01:34.947Z,5.20
2019-02-15T04:04:05.325Z,5.20
2019-02-15T04:06:35.569Z,5.30
2019-02-15T04:09:06.130Z,5.40
2019-02-15T04:11:36.343Z,5.30
2019-02-15T04:14:06.431Z,5.00
2019-02-15T04:16:36.206Z,5.30
2019-02-15T04:19:05.887Z,4.90
2019-02-15T04:21:36.861Z,4.90
2019-02-15T04:24:07.497Z,5.10
2019-02-15T04:26:37.307Z,5.00
2019-02-15T04:29:07.425Z,5.00
2019-02-15T04:31:37.272Z,5.20
2019-02-15T04:34:07.415Z,4.90
2019-02-15T04:36:38.265Z,4.80
2019-02-15T04:39:08.903Z,4.90
2019-02-15T04:41:39.318Z,5.00
2019-02-15T04:44:10.482Z,5.10
2019-02-15T04:46:40.897Z,5.00
2019-02-15T04:49:11.225Z,5.20
2019-02-15T04:51:41.419Z,5.10
2019-02-15T04:54:11.971Z,5.00
2019-02-15T04:59:12.013Z,5.00
2019-02-15T05:01:42.316Z,5.20
2019-02-15T05:04:13.436Z,5.30
2019-02-15T05:06:44.503Z,5.20
2019-02-15T05:09:15.017Z,5.10
2019-02-15T05:11:45.638Z,5.20
2019-02-15T05:14:16.346Z,5.20
2019-02-15T05:16:46.789Z,5.30
2019-02-15T05:19:17.507Z,5.20
2019-02-15T05:21:49.860Z,5.10
2019-02-15T05:24:20.081Z,5.30
2019-02-15T05:26:54.599Z,5.40
2019-02-15T05:29:25.519Z,5.50
2019-02-15T05:32:13.755Z,5.20
2019-02-15T05:34:44.054Z,5.30
2019-02-15T05:37:14.433Z,5.40
2019-02-15T05:39:44.424Z,5.40
2019-02-15T05:42:14.419Z,5.40
2019-02-15T05:44:44.323Z,5.40
2019-02-15T05:47:15.355Z,5.60
2019-02-15T05:49:45.758Z,5.50
2019-02-15T05:52:16.186Z,5.30
2019-02-15T05:54:46.338Z,5.40
2019-02-15T05:57:16.277Z,5.40
2019-02-15T05:59:47.560Z,5.60
2019-02-15T06:02:17.456Z,5.40
2019-02-15T06:04:47.576Z,5.40
2019-02-15T06:07:17.569Z,5.60
2019-02-15T06:09:47.385Z,5.80
2019-02-15T06:12:17.506Z,5.80
2019-02-15T06:14:48.059Z,5.70
2019-02-15T06:17:17.921Z,5.80
2019-02-15T06:19:49.175Z,5.80
2019-02-15T06:22:19.710Z,5.80
2019-02-15T06:24:49.698Z,6.00
2019-02-15T06:27:19.850Z,6.10
2019-02-15T06:29:50.293Z,6.00
2019-02-15T06:32:20.821Z,6.00
2019-02-15T06:34:50.643Z,6.10
2019-02-15T06:37:21.424Z,5.90
2019-02-15T06:39:51.447Z,6.00
2019-02-15T06:42:21.404Z,5.90
2019-02-15T06:44:51.607Z,5.80
2019-02-15T06:47:21.913Z,5.90
2019-02-15T06:49:52.116Z,6.10
2019-02-15T06:52:23.606Z,6.10
2019-02-15T06:54:53.437Z,6.20
2019-02-15T06:57:24.514Z,6.20
2019-02-15T07:00:32.425Z,6.20
2019-02-15T07:03:25.313Z,6.20
2019-02-15T07:05:55.848Z,6.30
2019-02-15T07:08:26.700Z,6.50
2019-02-15T07:10:57.936Z,6.40
2019-02-15T07:13:29.222Z,6.70
2019-02-15T07:15:59.636Z,6.80
2019-02-15T07:18:29.605Z,6.80
2019-02-15T07:20:59.603Z,7.00
2019-02-15T07:23:31.075Z,7.10
2019-02-15T07:26:00.964Z,7.00
2019-02-15T07:28:31.642Z,7.20
2019-02-15T07:31:01.779Z,7.30
2019-02-15T07:33:32.583Z,7.40
2019-02-15T07:36:03.025Z,7.30
2019-02-15T07:38:33.824Z,7.50
2019-02-15T07:41:03.711Z,7.60
2019-02-15T07:43:33.977Z,7.60
2019-02-15T07:46:03.870Z,7.90
2019-02-15T07:48:34.081Z,8.00
2019-02-15T07:51:09.733Z,8.40
2019-02-15T07:53:36.682Z,8.30
2019-02-15T07:56:07.026Z,8.60
2019-02-15T07:58:37.253Z,8.70
2019-02-15T08:01:07.275Z,8.90
2019-02-15T08:03:38.046Z,8.90
2019-02-15T08:06:08.414Z,9.10
2019-02-15T08:08:38.134Z,9.30
2019-02-15T08:11:09.475Z,9.40
2019-02-15T08:13:40.057Z,9.70
2019-02-15T08:16:11.452Z,9.90
2019-02-15T08:18:41.799Z,10.00
2019-02-15T08:21:13.203Z,10.30
2019-02-15T08:23:44.345Z,10.50
2019-02-15T08:26:15.230Z,10.60
2019-02-15T08:28:45.132Z,10.80
2019-02-15T08:31:15.422Z,11.00
2019-02-15T08:33:45.971Z,11.00
2019-02-15T08:36:16.155Z,11.20
2019-02-15T08:38:46.887Z,11.30
2019-02-15T08:41:17.027Z,11.40
2019-02-15T08:43:47.285Z,11.70
2019-02-15T08:46:17.307Z,11.80
2019-02-15T08:48:47.494Z,12.00
2019-02-15T08:51:17.300Z,12.00
2019-02-15T08:53:47.242Z,12.10
2019-02-15T08:56:18.554Z,12.00
2019-02-15T08:58:48.787Z,12.00
2019-02-15T09:04:00.458Z,12.40
2019-02-15T09:06:30.760Z,12.20
2019-02-15T09:09:01.418Z,12.30
2019-02-15T09:11:33.866Z,12.60
2019-02-15T09:14:04.020Z,12.50
2019-02-15T09:16:34.531Z,12.60
2019-02-15T09:19:04.809Z,12.40
2019-02-15T09:21:37.837Z,12.60
2019-02-15T09:24:09.152Z,12.80
2019-02-15T09:26:39.117Z,12.90
2019-02-15T09:29:10.788Z,12.90
2019-02-15T09:31:41.161Z,12.80
2019-02-15T09:34:13.085Z,12.80
2019-02-15T09:36:44.788Z,13.00
2019-02-15T09:39:14.585Z,13.10
2019-02-15T09:41:44.715Z,13.20
2019-02-15T09:44:17.376Z,13.20
2019-02-15T09:46:47.874Z,13.20
2019-02-15T09:49:20.038Z,13.30
2019-02-15T09:51:49.798Z,13.10
2019-02-15T09:54:20.399Z,13.20
2019-02-15T09:56:50.360Z,13.10
2019-02-15T09:59:22.386Z,13.30
2019-02-15T10:01:52.392Z,13.10
2019-02-15T10:04:22.792Z,13.10
2019-02-15T10:06:53.273Z,13.60
2019-02-15T10:09:23.974Z,13.50
2019-02-15T10:11:54.064Z,13.90
2019-02-15T10:14:25.161Z,14.00
2019-02-15T10:17:16.432Z,13.90
2019-02-15T10:19:46.675Z,14.00
2019-02-15T10:22:38.023Z,14.00
2019-02-15T10:25:09.663Z,14.30
2019-02-15T10:28:00.525Z,14.20
2019-02-15T10:30:31.261Z,14.20
2019-02-15T10:33:01.802Z,14.50
2019-02-15T10:35:31.898Z,14.70
2019-02-15T10:38:02.516Z,14.30
2019-02-15T10:40:33.106Z,14.40
2019-02-15T10:43:03.574Z,14.30
2019-02-15T10:45:34.322Z,14.20
2019-02-15T10:48:04.940Z,14.20
2019-02-15T10:50:35.703Z,14.40
2019-02-15T10:53:06.205Z,14.50
2019-02-15T10:55:38.095Z,14.50
2019-02-15T10:58:09.212Z,14.50
2019-02-15T11:00:39.867Z,14.40
2019-02-15T11:03:10.475Z,14.80
2019-02-15T11:05:40.573Z,15.10
2019-02-15T11:08:11.684Z,15.30
2019-02-15T11:10:41.621Z,15.20
2019-02-15T11:13:11.492Z,15.40
2019-02-15T11:15:41.892Z,15.10
2019-02-15T11:18:11.900Z,15.30
2019-02-15T11:20:42.520Z,15.60
2019-02-15T11:23:12.638Z,16.10
2019-02-15T11:25:42.997Z,16.10
2019-02-15T11:28:14.625Z,15.70
2019-02-15T11:30:44.370Z,15.80
2019-02-15T11:33:14.702Z,16.20
2019-02-15T11:35:45.600Z,16.50
2019-02-15T11:38:18.065Z,16.50
2019-02-15T11:40:48.080Z,16.70
2019-02-15T11:43:18.412Z,17.00
2019-02-15T11:45:49.120Z,16.90
2019-02-15T11:48:19.205Z,17.30
2019-02-15T11:50:49.574Z,17.20
2019-02-15T11:53:19.837Z,17.20
2019-02-15T11:55:50.516Z,17.00
2019-02-15T11:58:20.772Z,17.00
2019-02-15T12:00:50.882Z,17.50
2019-02-15T12:03:20.783Z,17.40
2019-02-15T12:05:51.064Z,16.80
2019-02-15T12:08:21.251Z,17.20
2019-02-15T12:10:52.280Z,17.10
2019-02-15T12:13:22.287Z,17.60
2019-02-15T12:15:52.763Z,18.00
2019-02-15T12:18:23.198Z,18.50
2019-02-15T12:20:53.720Z,18.00
2019-02-15T12:23:23.477Z,17.80
2019-02-15T12:25:55.044Z,17.20
2019-02-15T12:28:25.337Z,17.60
2019-02-15T12:30:55.976Z,17.80
2019-02-15T12:33:26.190Z,17.70
2019-02-15T12:35:56.779Z,17.40
2019-02-15T12:38:26.912Z,16.90
2019-02-15T12:40:56.987Z,18.00
2019-02-15T12:43:27.146Z,18.10
2019-02-15T12:45:57.597Z,18.20
2019-02-15T12:48:28.774Z,19.00
2019-02-15T12:50:58.653Z,18.80
2019-02-15T12:53:28.611Z,19.50
2019-02-15T12:56:00.774Z,18.30
2019-02-15T12:58:31.285Z,17.60
2019-02-15T13:01:01.970Z,18.00
2019-02-15T13:03:32.695Z,17.10
2019-02-15T13:06:04.107Z,18.00
2019-02-15T13:08:33.923Z,18.40
2019-02-15T13:11:04.324Z,18.10
2019-02-15T13:13:34.307Z,18.40
2019-02-15T13:16:05.131Z,17.90
2019-02-15T13:18:34.839Z,18.40
2019-02-15T13:21:05.955Z,18.60
2019-02-15T13:23:36.662Z,18.60
2019-02-15T13:26:08.859Z,18.30
2019-02-15T13:28:40.969Z,18.70
2019-02-15T13:31:11.428Z,18.70
2019-02-15T13:33:42.014Z,17.80
2019-02-15T13:36:12.502Z,17.60
2019-02-15T13:38:42.703Z,17.60
2019-02-15T13:41:13.080Z,17.50
2019-02-15T13:43:43.097Z,18.00
2019-02-15T13:46:13.539Z,17.80
2019-02-15T13:48:46.644Z,18.20
2019-02-15T13:51:17.417Z,18.00
2019-02-15T13:53:48.055Z,18.40
2019-02-15T13:56:18.697Z,18.60
2019-02-15T13:58:49.065Z,18.80
2019-02-15T14:01:19.841Z,18.50
2019-02-15T14:03:51.429Z,18.40
2019-02-15T14:06:22.113Z,18.70
2019-02-15T14:08:53.783Z,19.40
2019-02-15T14:11:24.190Z,19.60
2019-02-15T14:13:53.948Z,19.20
2019-02-15T14:16:24.896Z,19.40
2019-02-15T14:18:54.719Z,19.50
2019-02-15T14:21:24.879Z,18.90
2019-02-15T14:23:54.449Z,18.40
2019-02-15T14:26:25.668Z,18.70
2019-02-15T14:28:56.011Z,18.10
2019-02-15T14:31:25.883Z,18.60
2019-02-15T14:33:56.731Z,18.40
2019-02-15T14:36:27.379Z,18.90
2019-02-15T14:38:57.524Z,18.90
2019-02-15T14:41:27.824Z,19.00
2019-02-15T14:43:58.520Z,18.80
2019-02-15T14:46:28.788Z,19.10
2019-02-15T14:48:59.582Z,18.90
2019-02-15T14:51:31.618Z,18.90
2019-02-15T14:54:01.279Z,18.40
2019-02-15T14:56:31.531Z,18.50
2019-02-15T14:59:02.754Z,18.00
2019-02-15T15:01:32.910Z,18.10
2019-02-15T15:04:03.031Z,19.20
2019-02-15T15:06:34.538Z,18.00
2019-02-15T15:09:06.305Z,18.80
2019-02-15T15:11:37.038Z,18.60
2019-02-15T15:14:07.384Z,19.10
2019-02-15T15:16:37.950Z,19.50
2019-02-15T15:19:08.528Z,18.80
2019-02-15T15:21:38.962Z,19.40
2019-02-15T15:24:09.699Z,18.30
2019-02-15T15:26:41.071Z,18.40
2019-02-15T15:29:11.506Z,18.40
2019-02-15T15:31:42.178Z,18.30
2019-02-15T15:34:13.736Z,18.50
2019-02-15T15:36:46.031Z,18.00
2019-02-15T15:39:17.140Z,18.30
2019-02-15T15:41:47.747Z,18.10
2019-02-15T15:44:17.740Z,17.40
2019-02-15T15:46:50.502Z,17.40
2019-02-15T15:49:20.887Z,17.00
2019-02-15T15:51:51.035Z,17.00
2019-02-15T15:54:21.598Z,16.70
2019-02-15T15:56:51.745Z,16.60
2019-02-15T15:59:22.257Z,16.30
2019-02-15T16:01:52.559Z,16.30
2019-02-15T16:04:22.867Z,16.30
2019-02-15T16:06:52.945Z,15.80
2019-02-15T16:09:22.745Z,15.00
2019-02-15T16:11:52.935Z,14.70
2019-02-15T16:14:23.648Z,14.40
2019-02-15T16:16:54.293Z,14.40
2019-02-15T16:19:24.318Z,14.30
2019-02-15T16:21:55.845Z,14.20
2019-02-15T16:24:27.080Z,14.40
2019-02-15T16:26:58.272Z,14.30
2019-02-15T16:29:28.919Z,14.20
2019-02-15T16:31:59.775Z,13.90
2019-02-15T16:34:30.260Z,13.80
2019-02-15T16:37:02.342Z,13.90
2019-02-15T16:39:34.862Z,13.90
2019-02-15T16:42:05.821Z,13.80
2019-02-15T16:44:36.458Z,14.00
2019-02-15T16:47:07.034Z,13.90
2019-02-15T16:49:37.558Z,13.80
2019-02-15T16:52:08.074Z,13.90
2019-02-15T16:54:38.272Z,13.70
2019-02-15T16:57:08.422Z,13.50
2019-02-15T16:59:39.745Z,13.50
2019-02-15T17:02:10.870Z,13.30
2019-02-15T17:04:41.134Z,13.30
2019-02-15T17:07:11.292Z,13.30
2019-02-15T17:09:42.283Z,13.30
2019-02-15T17:12:12.591Z,13.00
2019-02-15T17:14:42.983Z,12.70
2019-02-15T17:17:13.879Z,12.40
2019-02-15T17:20:04.949Z,12.10
2019-02-15T17:22:36.206Z,12.10
2019-02-15T17:25:08.345Z,11.80
2019-02-15T17:27:40.061Z,11.90
2019-02-15T17:30:11.235Z,12.00
2019-02-15T17:32:52.777Z,12.30
2019-02-15T17:35:24.478Z,12.10
2019-02-15T17:37:56.270Z,12.40
2019-02-15T17:40:27.586Z,12.30
2019-02-15T17:42:59.138Z,12.00
2019-02-15T17:45:31.210Z,12.10
2019-02-15T17:48:02.592Z,12.30
2019-02-15T17:50:33.532Z,12.10
2019-02-15T17:53:05.696Z,11.60
2019-02-15T17:55:36.852Z,11.80
2019-02-15T17:58:07.991Z,11.60
2019-02-15T18:00:39.028Z,11.60
2019-02-15T18:03:10.334Z,11.60
2019-02-15T18:05:41.553Z,11.50
2019-02-15T18:08:13.044Z,11.30
2019-02-15T18:10:45.642Z,11.30
2019-02-15T18:13:16.854Z,11.30
2019-02-15T18:15:47.707Z,11.20
2019-02-15T18:18:18.531Z,11.10
2019-02-15T18:20:48.975Z,11.00
2019-02-15T18:23:19.896Z,10.90
2019-02-15T18:25:51.256Z,10.90
2019-02-15T18:28:22.532Z,10.80
2019-02-15T18:30:54.077Z,10.50
2019-02-15T18:33:24.962Z,10.30
2019-02-15T18:35:56.362Z,10.40
2019-02-15T18:38:27.189Z,10.40
2019-02-15T18:40:58.163Z,10.10
2019-02-15T18:43:29.642Z,10.00
2019-02-15T18:46:00.639Z,10.00
2019-02-15T18:48:36.682Z,10.10
2019-02-15T18:51:07.873Z,10.00
2019-02-15T18:53:39.378Z,10.00
2019-02-15T18:56:10.898Z,10.10
2019-02-15T18:58:41.877Z,10.10
2019-02-15T19:01:33.728Z,10.20
2019-02-15T19:04:05.285Z,10.50
2019-02-15T19:06:37.227Z,10.50
2019-02-15T19:09:28.839Z,10.40
2019-02-15T19:12:02.966Z,10.30
2019-02-15T19:14:34.517Z,10.30
2019-02-15T19:17:06.452Z,10.30
2019-02-15T19:19:37.404Z,10.20
2019-02-15T19:22:26.600Z,10.00
2019-02-15T19:24:57.902Z,9.60
2019-02-15T19:27:29.309Z,10.10
2019-02-15T19:30:00.842Z,10.00
2019-02-15T19:32:32.157Z,10.30
2019-02-15T19:35:04.926Z,10.20
2019-02-15T19:37:36.161Z,10.30
2019-02-15T19:40:07.991Z,10.30
2019-02-15T19:42:39.725Z,10.10
2019-02-15T19:45:11.348Z,9.90
2019-02-15T19:47:43.977Z,9.70
2019-02-15T19:50:15.549Z,9.60
2019-02-15T19:52:47.039Z,9.40
2019-02-15T19:55:18.752Z,9.40
2019-02-15T19:57:49.668Z,9.60
2019-02-15T20:00:23.155Z,9.60
2019-02-15T20:02:54.383Z,9.50
2019-02-15T20:05:25.593Z,9.80
2019-02-15T20:07:59.074Z,10.00
2019-02-15T20:10:30.589Z,9.80
2019-02-15T20:13:01.704Z,9.80
2019-02-15T20:15:33.436Z,9.30
2019-02-15T20:18:05.755Z,9.20
2019-02-15T20:20:36.790Z,9.20
2019-02-15T20:23:08.736Z,9.10
2019-02-15T20:25:39.764Z,9.10
2019-02-15T20:28:14.080Z,9.40
2019-02-15T20:30:44.156Z,9.60
2019-02-15T20:33:15.235Z,9.60
2019-02-15T20:35:46.222Z,9.40
2019-02-15T20:38:17.405Z,9.40
2019-02-15T20:40:48.495Z,9.10
2019-02-15T20:43:19.123Z,8.20
2019-02-15T20:45:52.718Z,8.30
2019-02-15T20:48:23.767Z,8.50
2019-02-15T20:51:16.588Z,8.40
2019-02-15T20:53:47.519Z,8.30
2019-02-15T20:56:20.811Z,8.20
2019-02-15T20:58:52.786Z,8.30
2019-02-15T21:01:23.577Z,8.30
2019-02-15T21:03:55.542Z,8.10
2019-02-15T21:06:26.306Z,6.90
2019-02-15T21:08:57.867Z,8.20
2019-02-15T21:11:29.092Z,8.00
2019-02-15T21:14:00.433Z,7.90
2019-02-15T21:16:31.487Z,7.30
2019-02-15T21:19:02.007Z,7.80
2019-02-15T21:21:33.492Z,7.40
2019-02-15T21:24:04.024Z,7.30
2019-02-15T21:26:34.904Z,7.40
2019-02-15T21:29:07.697Z,7.40
2019-02-15T21:31:38.249Z,7.30
2019-02-15T21:34:08.383Z,7.60
2019-02-15T21:36:42.788Z,7.60
2019-02-15T21:39:13.618Z,7.80
2019-02-15T21:41:44.267Z,8.00
2019-02-15T21:44:14.384Z,7.70
2019-02-15T21:46:45.091Z,7.60
2019-02-15T21:49:15.226Z,7.50
2019-02-15T21:51:45.481Z,7.10
2019-02-15T21:54:15.691Z,7.30
2019-02-15T21:56:46.656Z,7.40
2019-02-15T21:59:16.555Z,7.40
2019-02-15T22:01:46.632Z,7.30
2019-02-15T22:04:17.075Z,7.50
2019-02-15T22:06:47.309Z,7.60
2019-02-15T22:09:17.431Z,7.70
2019-02-15T22:11:47.765Z,7.90
2019-02-15T22:14:18.394Z,7.60
2019-02-15T22:17:09.203Z,7.60
2019-02-15T22:19:39.763Z,7.70
2019-02-15T22:22:10.633Z,7.50
2019-02-15T22:24:41.508Z,7.40
2019-02-15T22:27:12.472Z,7.20
2019-02-15T22:29:42.575Z,7.10
2019-02-15T22:32:13.970Z,7.10
2019-02-15T22:34:44.116Z,7.00
2019-02-15T22:37:14.061Z,6.90
2019-02-15T22:39:44.697Z,6.80
2019-02-15T22:42:14.555Z,6.80
2019-02-15T22:44:45.525Z,6.70
2019-02-15T22:47:15.301Z,6.70
2019-02-15T22:49:44.998Z,6.60
2019-02-15T22:52:20.762Z,6.80
2019-02-15T22:54:51.420Z,6.80
2019-02-15T22:57:22.033Z,6.80
2019-02-15T22:59:54.740Z,6.90
2019-02-15T23:02:25.324Z,6.90
2019-02-15T23:04:55.618Z,6.90
2019-02-15T23:07:25.414Z,6.90
2019-02-15T23:09:55.740Z,6.90
2019-02-15T23:12:26.019Z,7.10
2019-02-15T23:14:55.981Z,7.20
2019-02-15T23:17:26.700Z,7.20
2019-02-15T23:19:56.567Z,7.00
2019-02-15T23:22:26.740Z,7.10
2019-02-15T23:24:56.737Z,7.50
2019-02-15T23:27:27.293Z,7.50
2019-02-15T23:29:57.490Z,7.20
2019-02-15T23:32:28.256Z,7.30
2019-02-15T23:34:58.144Z,7.40
2019-02-15T23:37:28.314Z,7.40
2019-02-15T23:39:58.043Z,7.40
2019-02-15T23:42:28.665Z,7.50
2019-02-15T23:44:58.886Z,7.30
2019-02-15T23:47:28.902Z,7.30
2019-02-15T23:49:59.006Z,7.00
2019-02-15T23:52:29.488Z,7.10
2019-02-15T23:54:59.582Z,7.10
2019-02-15T23:57:29.841Z,7.20
2019-02-15T23:59:59.743Z,7.20
